Time;durP1;ratioP1;P1;durP2;ratioP2;P2;SDS_P1;SDS_P2;PMS_P1;PMS_P2;Temp;Humidity;BMP_temperature;BMP_pressure;BME280_temperature;BME280_humidity;BME280_pressure;Samples;Min_cycle;Max_cycle;Signal;HPM_P1;HPM_P2
2021/01/19 00:00:58;;;;;;;13.53;9.70;;;;;;;5.71;73.32;101261.94;6205473;28;20246;-73
2021/01/19 00:04:18;;;;;;;12.20;8.80;;;;;;;5.65;72.71;101256.66;6189181;28;20313;-73
2021/01/19 00:07:39;;;;;;;17.73;11.37;;;;;;;5.70;72.84;101251.59;6191910;28;20320;-73
2021/01/19 00:11:00;;;;;;;18.33;10.30;;;;;;;5.71;73.21;101251.59;6206018;28;20324;-73
2021/01/19 00:14:20;;;;;;;11.23;9.23;;;;;;;5.82;72.49;101253.53;6219088;28;20627;-72
2021/01/19 00:17:42;;;;;;;20.07;10.93;;;;;;;5.84;72.30;101236.34;6193234;28;20240;-73
2021/01/19 00:21:03;;;;;;;17.97;11.47;;;;;;;5.76;72.41;101237.88;6204570;28;20333;-73
2021/01/19 00:24:24;;;;;;;19.40;11.70;;;;;;;5.57;73.14;101235.00;6191265;28;20234;-73
2021/01/19 00:27:44;;;;;;;18.67;12.27;;;;;;;5.54;73.84;101232.34;6190149;28;20603;-73
2021/01/19 00:31:05;;;;;;;18.47;13.60;;;;;;;5.69;73.07;101227.44;6196025;28;20249;-74
2021/01/19 00:34:26;;;;;;;16.47;13.90;;;;;;;5.75;72.92;101233.59;6183016;28;20237;-73
2021/01/19 00:37:46;;;;;;;18.80;14.03;;;;;;;5.70;72.59;101241.28;6190506;28;20230;-73
2021/01/19 00:41:07;;;;;;;16.47;14.43;;;;;;;5.81;72.83;101237.13;6188468;28;20233;-71
2021/01/19 00:44:27;;;;;;;22.20;15.03;;;;;;;5.70;72.60;101243.84;6220744;28;20229;-72
2021/01/19 00:47:48;;;;;;;17.57;13.97;;;;;;;5.79;72.54;101228.47;6193136;28;20256;-72
2021/01/19 00:51:09;;;;;;;18.00;15.43;;;;;;;5.73;72.54;101230.97;6190264;28;20550;-72
2021/01/19 00:54:30;;;;;;;20.90;16.80;;;;;;;5.66;72.79;101211.03;6192831;28;20234;-72
2021/01/19 00:57:51;;;;;;;24.97;16.87;;;;;;;5.46;73.12;101215.84;6187885;28;20666;-72
2021/01/19 01:01:16;;;;;;;25.37;15.27;;;;;;;5.55;72.77;101204.81;6191148;28;20241;-72
2021/01/19 01:04:36;;;;;;;19.73;17.40;;;;;;;5.68;72.34;101194.72;6181920;28;20226;-70
2021/01/19 01:07:59;;;;;;;16.60;14.93;;;;;;;5.77;72.18;101198.28;6182403;28;20238;-72
2021/01/19 01:11:20;;;;;;;19.43;15.23;;;;;;;5.65;72.68;101184.31;6188888;28;20234;-72
2021/01/19 01:14:40;;;;;;;19.27;16.03;;;;;;;5.72;72.29;101182.72;6191165;28;21119;-72
2021/01/19 01:18:01;;;;;;;20.60;17.23;;;;;;;5.72;72.39;101177.56;6178959;28;20285;-72
2021/01/19 01:21:21;;;;;;;20.30;16.63;;;;;;;5.79;72.03;101174.19;6190953;28;20234;-73
2021/01/19 01:24:42;;;;;;;24.73;16.23;;;;;;;5.69;72.72;101178.34;6189760;28;20233;-72
2021/01/19 01:28:03;;;;;;;19.73;17.40;;;;;;;5.42;73.26;101162.38;6189109;28;20237;-72
2021/01/19 01:31:24;;;;;;;20.37;16.90;;;;;;;5.67;72.35;101161.94;6182583;28;20226;-72
2021/01/19 01:34:44;;;;;;;24.50;18.47;;;;;;;5.70;72.17;101164.59;6184251;28;20254;-72
2021/01/19 01:38:05;;;;;;;26.73;18.50;;;;;;;5.48;72.72;101149.56;6184703;28;20265;-72
2021/01/19 01:41:26;;;;;;;21.77;16.30;;;;;;;5.46;72.49;101146.09;6191803;28;20245;-73
2021/01/19 01:44:47;;;;;;;22.43;17.27;;;;;;;5.53;72.30;101140.19;6185718;28;20308;-73
2021/01/19 01:48:09;;;;;;;24.53;16.63;;;;;;;5.53;72.52;101138.47;6190924;28;20668;-72
2021/01/19 01:51:31;;;;;;;19.17;15.90;;;;;;;5.56;72.22;101147.97;6199738;28;20281;-72
2021/01/19 01:54:53;;;;;;;25.13;17.37;;;;;;;5.59;72.41;101145.47;6189338;28;20229;-72
2021/01/19 01:58:14;;;;;;;19.77;17.67;;;;;;;5.48;71.99;101149.56;6192496;28;20257;-73
2021/01/19 02:01:35;;;;;;;20.97;17.77;;;;;;;5.36;72.28;101136.47;6186499;28;20238;-72
2021/01/19 02:04:55;;;;;;;18.90;16.70;;;;;;;5.43;72.07;101125.38;6187932;28;20226;-72
2021/01/19 02:08:33;;;;;;;24.17;17.57;;;;;;;5.20;73.10;101117.25;6187738;28;20551;-71
2021/01/19 02:12:02;;;;;;;18.47;16.40;;;;;;;5.11;72.99;101123.09;6191015;28;20230;-72
2021/01/19 02:15:34;;;;;;;21.23;16.63;;;;;;;5.35;72.61;101119.22;6202009;28;20230;-73
2021/01/19 02:19:09;;;;;;;25.43;20.93;;;;;;;5.29;72.35;101107.94;6188327;28;20233;-73
2021/01/19 02:22:54;;;;;;;23.23;19.00;;;;;;;5.44;72.20;101111.63;6184776;28;20276;-72
2021/01/19 02:26:53;;;;;;;24.87;18.03;;;;;;;5.07;73.14;101101.50;6185648;28;20226;-74
2021/01/19 02:30:26;;;;;;;31.23;20.40;;;;;;;5.33;72.73;101094.25;6185194;28;20803;-73
2021/01/19 02:34:02;;;;;;;21.57;18.47;;;;;;;5.23;72.86;101092.31;6188813;28;20320;-72
2021/01/19 02:37:28;;;;;;;27.57;19.13;;;;;;;5.09;72.96;101089.50;6201997;28;20333;-73
2021/01/19 02:40:53;;;;;;;26.10;19.80;;;;;;;5.37;72.09;101089.09;6185043;28;20257;-73
2021/01/19 02:44:19;;;;;;;25.13;18.50;;;;;;;5.25;73.07;101093.25;6181980;28;20822;-73
2021/01/19 02:47:40;;;;;;;25.97;20.40;;;;;;;5.44;72.30;101085.78;6184799;28;20221;-73
2021/01/19 02:51:01;;;;;;;23.90;20.33;;;;;;;5.18;72.84;101088.81;6186908;28;20234;-72
2021/01/19 02:54:22;;;;;;;25.17;20.10;;;;;;;5.37;72.23;101078.78;6188072;28;20233;-72
2021/01/19 02:58:00;;;;;;;28.47;21.90;;;;;;;5.12;72.90;101068.91;6189562;28;20245;-72
2021/01/19 03:01:26;;;;;;;28.10;22.07;;;;;;;5.19;72.78;101072.47;6192565;28;20229;-73
2021/01/19 03:04:48;;;;;;;26.60;22.13;;;;;;;5.15;72.93;101062.94;6196426;28;20230;-72
2021/01/19 03:08:13;;;;;;;25.70;21.50;;;;;;;5.59;71.76;101049.88;6185196;28;20314;-71
2021/01/19 03:11:36;;;;;;;26.67;22.17;;;;;;;5.51;71.86;101036.81;6194620;28;20222;-72
2021/01/19 03:14:58;;;;;;;32.30;26.00;;;;;;;5.42;71.96;101031.50;6195458;28;20225;-72
2021/01/19 03:18:19;;;;;;;26.93;24.00;;;;;;;5.55;71.79;101023.97;6194554;28;20324;-73
2021/01/19 03:21:39;;;;;;;34.13;25.13;;;;;;;5.32;72.18;101025.34;6195892;28;20628;-72
2021/01/19 03:25:00;;;;;;;27.50;24.33;;;;;;;5.50;71.57;101024.75;6194315;28;20237;-72
2021/01/19 03:28:21;;;;;;;27.13;23.00;;;;;;;5.68;71.07;101013.84;6183729;28;20585;-72
2021/01/19 03:31:42;;;;;;;23.53;21.00;;;;;;;5.48;72.23;101010.06;6189867;28;20515;-73
2021/01/19 03:35:02;;;;;;;26.50;22.20;;;;;;;5.19;72.72;101010.50;6185613;28;20238;-72
2021/01/19 03:38:23;;;;;;;29.07;23.13;;;;;;;5.47;72.00;101010.94;6190007;28;20249;-73
2021/01/19 03:41:45;;;;;;;30.13;23.03;;;;;;;5.46;71.92;100991.09;6191595;28;20237;-73
2021/01/19 03:45:06;;;;;;;27.53;23.27;;;;;;;5.60;71.24;100994.75;6189259;28;20237;-72
2021/01/19 03:48:26;;;;;;;27.77;23.10;;;;;;;5.37;72.23;100989.28;6190281;28;20268;-73
2021/01/19 03:51:47;;;;;;;29.50;25.80;;;;;;;5.58;71.58;100980.06;6200321;28;20242;-73
2021/01/19 03:55:08;;;;;;;26.90;23.30;;;;;;;5.56;72.06;100976.59;6206914;28;20237;-74
2021/01/19 03:58:29;;;;;;;25.50;22.40;;;;;;;5.71;71.46;100966.47;6182058;28;20258;-73
2021/01/19 04:01:50;;;;;;;28.80;25.30;;;;;;;5.61;71.91;100954.28;6191098;28;20233;-72
2021/01/19 04:05:11;;;;;;;27.57;23.50;;;;;;;5.65;71.67;100956.94;6193167;28;20742;-72
2021/01/19 04:08:31;;;;;;;29.60;24.53;;;;;;;5.58;72.06;100960.25;6183747;28;20230;-71
2021/01/19 04:11:52;;;;;;;37.90;23.87;;;;;;;5.27;72.55;100964.13;6187158;28;20656;-72
2021/01/19 04:15:14;;;;;;;27.33;24.03;;;;;;;5.38;72.63;100946.22;6190405;28;20233;-71
2021/01/19 04:18:34;;;;;;;27.50;24.13;;;;;;;5.57;72.53;100927.53;6190092;28;20233;-71
2021/01/19 04:21:55;;;;;;;31.87;25.73;;;;;;;5.52;72.94;100924.03;6186522;28;20245;-72
2021/01/19 04:25:15;;;;;;;28.53;23.23;;;;;;;5.25;73.68;100925.41;6184058;28;20230;-72
2021/01/19 04:28:36;;;;;;;30.60;24.80;;;;;;;5.16;73.82;100925.25;6190427;28;20799;-73
2021/01/19 04:31:57;;;;;;;30.27;23.83;;;;;;;5.36;73.77;100911.75;6184540;28;20234;-72
2021/01/19 04:35:17;;;;;;;27.07;23.07;;;;;;;5.31;74.78;100904.81;6188830;28;20229;-72
2021/01/19 04:38:37;;;;;;;33.87;25.37;;;;;;;5.25;74.57;100890.94;6190703;28;20222;-72
2021/01/19 04:41:58;;;;;;;31.27;24.43;;;;;;;5.18;75.29;100891.72;6191778;28;20611;-71
2021/01/19 04:45:19;;;;;;;34.30;27.20;;;;;;;5.46;74.73;100885.19;6192284;28;20320;-70
2021/01/19 04:48:42;;;;;;;29.80;25.07;;;;;;;5.30;75.50;100882.41;6191410;28;20230;-70
2021/01/19 04:52:04;;;;;;;33.10;27.87;;;;;;;5.16;75.61;100878.78;6188488;28;20229;-71
2021/01/19 04:55:25;;;;;;;27.67;24.77;;;;;;;5.25;75.65;100878.91;6203728;28;20238;-70
2021/01/19 04:58:49;;;;;;;31.83;25.13;;;;;;;5.10;76.87;100861.50;6191856;28;20316;-70
2021/01/19 05:02:35;;;;;;;33.70;24.63;;;;;;;5.32;75.68;100849.72;6189920;28;21111;-71
2021/01/19 05:06:02;;;;;;;26.10;21.67;;;;;;;4.92;76.56;100841.47;6192929;28;20230;-70
2021/01/19 05:09:34;;;;;;;29.60;25.03;;;;;;;5.31;75.57;100829.03;6181362;28;20627;-70
2021/01/19 05:13:01;;;;;;;24.97;20.03;;;;;;;4.96;76.78;100823.41;6178592;28;20515;-70
2021/01/19 05:16:25;;;;;;;21.70;19.40;;;;;;;5.09;75.82;100821.03;6189099;28;20259;-70
2021/01/19 05:19:45;;;;;;;24.77;19.87;;;;;;;4.94;76.02;100815.66;6196890;28;20222;-70
2021/01/19 05:23:07;;;;;;;25.10;21.80;;;;;;;4.87;77.34;100809.53;6188688;28;20229;-70
2021/01/19 05:26:27;;;;;;;20.33;18.10;;;;;;;5.01;75.61;100811.47;6188010;28;20621;-68
2021/01/19 05:29:48;;;;;;;21.30;16.70;;;;;;;4.72;76.75;100804.16;6189768;28;20246;-69
2021/01/19 05:33:14;;;;;;;19.80;17.80;;;;;;;4.57;78.03;100785.88;6183475;28;20276;-69
2021/01/19 05:36:41;;;;;;;20.17;15.93;;;;;;;4.85;76.71;100777.69;6189676;28;20449;-69
2021/01/19 05:40:04;;;;;;;20.63;17.50;;;;;;;4.92;76.12;100771.78;6186824;28;20230;-68
2021/01/19 05:43:27;;;;;;;19.53;16.63;;;;;;;4.92;76.11;100771.78;6185015;28;20245;-68
2021/01/19 05:46:59;;;;;;;25.53;16.87;;;;;;;4.74;76.47;100758.59;6186181;28;20326;-69
2021/01/19 05:50:19;;;;;;;16.83;14.87;;;;;;;4.76;77.03;100759.50;6188312;28;20241;-69
2021/01/19 05:53:41;;;;;;;15.93;14.33;;;;;;;4.50;77.20;100752.25;6182163;28;20238;-68
2021/01/19 05:57:08;;;;;;;18.40;15.50;;;;;;;4.81;76.69;100738.91;6187660;28;20229;-69
2021/01/19 06:00:29;;;;;;;16.73;14.60;;;;;;;4.63;76.75;100732.66;6179167;28;20233;-69
2021/01/19 06:03:56;;;;;;;17.83;15.83;;;;;;;4.80;76.68;100721.72;6191503;28;22000;-69
2021/01/19 06:07:19;;;;;;;16.33;14.73;;;;;;;4.36;76.75;100721.94;6189652;28;20257;-69
2021/01/19 06:10:40;;;;;;;15.97;14.30;;;;;;;4.59;76.39;100701.66;6172285;28;20233;-69
2021/01/19 06:14:01;;;;;;;18.83;15.20;;;;;;;4.58;76.53;100698.22;6189933;28;20241;-69
2021/01/19 06:17:23;;;;;;;16.80;15.10;;;;;;;4.72;76.62;100686.34;6184400;28;20242;-69
2021/01/19 06:20:43;;;;;;;16.37;14.77;;;;;;;4.82;76.08;100684.75;6187111;28;20241;-69
2021/01/19 06:24:05;;;;;;;15.90;14.37;;;;;;;4.52;75.98;100670.63;6186181;28;20225;-69
2021/01/19 06:27:29;;;;;;;15.53;14.03;;;;;;;4.53;76.15;100685.22;6185394;28;20596;-69
2021/01/19 06:30:50;;;;;;;16.60;14.97;;;;;;;4.63;76.29;100663.00;6189893;28;20226;-67
2021/01/19 06:34:23;;;;;;;15.07;13.67;;;;;;;4.54;77.25;100650.88;6188196;28;20644;-69
2021/01/19 06:37:45;;;;;;;15.53;13.90;;;;;;;4.51;76.87;100640.50;6186934;28;20230;-68
2021/01/19 06:41:07;;;;;;;15.93;14.47;;;;;;;4.60;76.86;100638.91;6183546;28;20634;-66
2021/01/19 06:44:41;;;;;;;14.90;13.40;;;;;;;4.46;77.17;100620.66;6191036;28;20229;-67
2021/01/19 06:48:03;;;;;;;15.53;14.00;;;;;;;4.97;75.34;100624.72;6186812;28;20241;-67
2021/01/19 06:51:24;;;;;;;14.93;13.13;;;;;;;4.46;77.13;100611.22;6187449;28;20237;-67
2021/01/19 06:55:17;;;;;;;14.70;13.40;;;;;;;4.57;76.50;100602.75;6190287;28;20249;-68
2021/01/19 06:58:48;;;;;;;13.17;11.87;;;;;;;4.64;75.71;100599.41;6186331;28;20245;-69
2021/01/19 07:02:17;;;;;;;13.63;12.23;;;;;;;4.53;75.56;100596.69;6184115;28;20233;-70
2021/01/19 07:05:45;;;;;;;12.77;11.23;;;;;;;4.53;75.57;100589.81;6187272;28;20225;-69
2021/01/19 07:09:44;;;;;;;12.27;11.00;;;;;;;4.75;74.75;100577.19;6185455;28;20249;-69
2021/01/19 07:13:05;;;;;;;13.80;12.13;;;;;;;4.56;76.19;100583.84;6177450;28;20234;-69
2021/01/19 07:16:38;;;;;;;11.50;10.40;;;;;;;4.20;76.95;100571.34;6186076;28;20241;-69
2021/01/19 07:20:02;;;;;;;11.00;10.00;;;;;;;4.40;76.45;100564.75;6184552;28;20610;-69
2021/01/19 07:23:35;;;;;;;11.73;10.53;;;;;;;4.20;76.74;100559.31;6193924;28;20326;-69
2021/01/19 07:26:59;;;;;;;10.93;9.87;;;;;;;4.22;76.68;100552.47;6187716;28;20238;-67
2021/01/19 07:30:21;;;;;;;12.63;11.40;;;;;;;4.71;75.42;100565.06;6187630;28;20230;-69
2021/01/19 07:33:44;;;;;;;11.57;10.37;;;;;;;4.09;77.21;100548.88;6189485;28;20242;-67
2021/01/19 07:37:05;;;;;;;14.93;11.90;;;;;;;4.22;76.44;100543.88;6176817;28;20238;-66
2021/01/19 07:40:27;;;;;;;11.10;10.00;;;;;;;4.35;76.45;100535.44;6194229;28;20845;-67
2021/01/19 07:43:48;;;;;;;11.50;10.07;;;;;;;4.15;76.62;100532.66;6195228;28;20242;-68
2021/01/19 07:47:13;;;;;;;11.80;10.30;;;;;;;4.38;75.89;100527.78;6189153;28;20226;-67
2021/01/19 07:50:43;;;;;;;9.73;8.83;;;;;;;4.26;76.21;100520.72;6193949;28;20226;-66
2021/01/19 07:54:04;;;;;;;11.10;9.97;;;;;;;4.05;76.83;100520.47;6192499;28;20225;-70
2021/01/19 07:57:30;;;;;;;11.77;10.30;;;;;;;4.40;76.02;100502.88;6202747;28;20226;-65
2021/01/19 08:00:56;;;;;;;11.87;9.60;;;;;;;4.21;76.48;100500.91;6192236;28;20254;-68
2021/01/19 08:04:16;;;;;;;9.33;8.33;;;;;;;4.13;76.51;100483.66;6179718;28;20604;-68
2021/01/19 08:07:39;;;;;;;10.10;9.07;;;;;;;4.24;76.95;100490.63;6192806;28;20234;-69
2021/01/19 08:10:59;;;;;;;10.47;9.30;;;;;;;4.57;75.73;100481.53;6189450;28;20229;-64
2021/01/19 08:14:20;;;;;;;11.07;9.73;;;;;;;4.75;75.58;100471.41;6188565;28;20254;-68
2021/01/19 08:17:49;;;;;;;8.63;7.83;;;;;;;4.07;75.94;100472.38;6190025;28;20242;-67
2021/01/19 08:21:11;;;;;;;11.37;8.53;;;;;;;4.07;77.19;100462.97;6194554;28;20225;-68
2021/01/19 08:24:31;;;;;;;8.60;7.80;;;;;;;4.02;76.90;100472.34;6187538;28;20632;-68
2021/01/19 08:27:52;;;;;;;10.17;8.50;;;;;;;4.32;76.31;100450.31;6189772;28;20254;-68
2021/01/19 08:31:16;;;;;;;9.73;8.17;;;;;;;4.22;76.67;100451.94;6189347;28;20530;-67
2021/01/19 08:34:39;;;;;;;8.60;6.93;;;;;;;4.27;76.51;100446.84;6191281;28;20233;-69
2021/01/19 08:38:00;;;;;;;9.00;8.17;;;;;;;4.33;76.36;100434.03;6187076;28;20229;-68
2021/01/19 08:41:21;;;;;;;7.17;5.60;;;;;;;4.03;77.45;100435.44;6192927;28;20750;-68
2021/01/19 08:44:42;;;;;;;9.33;8.20;;;;;;;4.30;77.05;100424.56;6185545;28;20266;-68
2021/01/19 08:48:05;;;;;;;7.37;6.70;;;;;;;4.24;76.18;100418.44;6176109;28;20317;-68
2021/01/19 08:51:26;;;;;;;8.07;6.30;;;;;;;4.38;76.66;100406.59;6190095;28;20238;-68
2021/01/19 08:54:46;;;;;;;7.00;6.40;;;;;;;4.27;76.40;100397.88;6180965;28;20233;-67
2021/01/19 08:58:07;;;;;;;7.20;6.30;;;;;;;4.67;75.89;100393.06;6180647;28;20230;-66
2021/01/19 09:01:27;;;;;;;12.97;6.30;;;;;;;4.55;75.64;100393.81;6191200;28;20238;-68
2021/01/19 09:04:49;;;;;;;5.80;5.30;;;;;;;4.49;75.99;100389.47;6215263;28;20536;-67
2021/01/19 09:08:14;;;;;;;6.83;5.67;;;;;;;4.71;74.95;100381.91;6183462;28;20229;-70
2021/01/19 09:11:35;;;;;;;5.63;4.80;;;;;;;4.58;75.21;100377.53;6184220;28;20233;-67
2021/01/19 09:14:55;;;;;;;5.00;4.50;;;;;;;4.52;75.24;100368.03;6192003;28;20248;-68
2021/01/19 09:18:17;;;;;;;5.70;4.37;;;;;;;4.53;75.60;100365.44;6179589;28;20335;-67
2021/01/19 09:21:39;;;;;;;3.90;3.50;;;;;;;4.42;75.04;100366.19;6191013;28;20229;-68
2021/01/19 09:25:00;;;;;;;4.73;4.17;;;;;;;4.38;75.21;100354.13;6190211;28;20222;-65
2021/01/19 09:28:20;;;;;;;7.23;6.27;;;;;;;4.73;74.31;100346.69;6197748;28;20228;-68
2021/01/19 09:31:41;;;;;;;5.20;4.30;;;;;;;4.48;75.11;100341.34;6180076;28;20237;-70
2021/01/19 09:35:04;;;;;;;4.23;3.80;;;;;;;4.01;76.71;100339.19;6187159;28;20229;-67
2021/01/19 09:38:26;;;;;;;4.77;4.37;;;;;;;4.78;74.28;100328.66;6188935;28;20230;-68
2021/01/19 09:41:46;;;;;;;4.53;4.13;;;;;;;4.58;74.23;100325.94;6202590;28;20234;-71
2021/01/19 09:45:09;;;;;;;4.97;4.10;;;;;;;4.44;75.57;100323.25;6188163;28;20230;-68
2021/01/19 09:48:32;;;;;;;5.87;4.20;;;;;;;4.63;75.18;100308.78;6186519;28;20662;-70
2021/01/19 09:51:52;;;;;;;4.47;4.07;;;;;;;4.86;74.77;100307.19;6195872;28;20237;-66
2021/01/19 09:55:16;;;;;;;3.60;3.30;;;;;;;4.92;73.81;100303.81;6192515;28;20590;-67
2021/01/19 09:58:37;;;;;;;5.27;3.80;;;;;;;4.87;73.98;100300.34;6180036;28;20230;-68
2021/01/19 10:01:59;;;;;;;4.50;4.10;;;;;;;4.84;74.06;100282.25;6191532;28;20909;-68
2021/01/19 10:05:22;;;;;;;4.40;3.93;;;;;;;4.60;74.61;100280.41;6190324;28;20226;-67
2021/01/19 10:08:45;;;;;;;5.07;4.27;;;;;;;4.12;76.68;100270.56;6194085;28;20321;-70
2021/01/19 10:12:08;;;;;;;5.37;4.13;;;;;;;4.32;76.81;100272.44;6214778;28;20325;-71
2021/01/19 10:15:29;;;;;;;9.07;4.30;;;;;;;4.39;76.20;100248.44;6195037;28;20238;-70
2021/01/19 10:18:50;;;;;;;6.43;4.43;;;;;;;4.63;76.30;100246.88;6187702;28;20321;-70
2021/01/19 10:22:11;;;;;;;5.17;4.67;;;;;;;4.44;76.44;100239.03;6191041;28;20217;-69
2021/01/19 10:25:33;;;;;;;5.23;3.70;;;;;;;4.80;75.63;100240.09;6186145;28;20226;-66
2021/01/19 10:28:56;;;;;;;5.10;4.60;;;;;;;4.82;75.33;100228.06;6187641;28;20232;-67
2021/01/19 10:32:17;;;;;;;4.50;3.73;;;;;;;4.70;75.72;100212.53;6189220;28;20233;-67
2021/01/19 10:35:38;;;;;;;5.10;3.87;;;;;;;4.48;76.55;100204.69;6191489;28;20233;-68
2021/01/19 10:39:05;;;;;;;5.47;3.53;;;;;;;4.74;75.59;100198.78;6191367;28;20233;-70
2021/01/19 10:42:28;;;;;;;5.63;3.67;;;;;;;4.82;75.48;100197.09;6195041;28;20498;-66
2021/01/19 10:45:49;;;;;;;4.30;3.90;;;;;;;4.71;75.99;100186.75;6190566;28;20674;-66
2021/01/19 10:49:11;;;;;;;4.03;2.97;;;;;;;5.11;74.53;100184.31;6184202;28;20344;-66
2021/01/19 10:52:32;;;;;;;2.77;2.57;;;;;;;4.93;75.51;100172.22;6192194;28;20242;-66
2021/01/19 10:55:52;;;;;;;3.87;2.47;;;;;;;4.94;75.40;100170.47;6184255;28;20254;-66
2021/01/19 10:59:13;;;;;;;5.10;2.60;;;;;;;4.81;75.69;100167.03;6188953;28;20230;-68
2021/01/19 11:02:35;;;;;;;3.23;2.87;;;;;;;5.14;74.70;100160.25;6201272;28;20468;-68
2021/01/19 11:05:55;;;;;;;3.70;2.70;;;;;;;5.37;73.73;100168.03;6186314;28;20237;-66
2021/01/19 11:09:16;;;;;;;3.57;2.63;;;;;;;5.16;74.73;100147.31;6190281;28;20225;-68
2021/01/19 11:12:36;;;;;;;3.10;2.53;;;;;;;5.40;74.07;100141.34;6184301;28;20222;-67
2021/01/19 11:15:58;;;;;;;3.73;3.37;;;;;;;5.25;74.44;100130.16;6194755;28;20245;-68
2021/01/19 11:19:19;;;;;;;3.43;3.13;;;;;;;4.93;75.92;100125.78;6187928;28;20237;-67
2021/01/19 11:22:43;;;;;;;4.00;2.90;;;;;;;5.43;74.87;100120.69;6192776;28;20317;-68
2021/01/19 11:26:04;;;;;;;4.50;4.00;;;;;;;5.35;74.78;100106.91;6190874;28;20253;-67
2021/01/19 11:29:25;;;;;;;6.57;4.47;;;;;;;5.69;74.52;100108.63;6194405;28;20225;-67
2021/01/19 11:32:45;;;;;;;6.13;3.20;;;;;;;5.28;76.03;100091.41;6192300;28;20233;-68
2021/01/19 11:36:07;;;;;;;6.70;3.57;;;;;;;5.45;75.83;100100.91;6186903;28;20230;-65
2021/01/19 11:39:29;;;;;;;4.37;3.23;;;;;;;5.00;76.92;100097.38;6189391;28;20233;-69
2021/01/19 11:42:50;;;;;;;5.80;3.20;;;;;;;5.48;75.55;100085.41;6182831;28;20238;-68
2021/01/19 11:46:11;;;;;;;5.83;5.33;;;;;;;5.36;76.61;100082.81;6189998;28;20226;-67
2021/01/19 11:49:31;;;;;;;3.30;3.10;;;;;;;5.26;77.17;100069.91;6194486;28;20229;-69
2021/01/19 11:52:53;;;;;;;4.70;3.30;;;;;;;5.28;76.88;100069.91;6188591;28;20237;-70
2021/01/19 11:56:14;;;;;;;12.07;3.70;;;;;;;5.63;76.21;100063.88;6182334;28;20321;-66
2021/01/19 11:59:35;;;;;;;5.20;4.73;;;;;;;5.64;76.44;100058.72;6180874;28;20230;-66
2021/01/19 12:02:55;;;;;;;4.47;4.17;;;;;;;5.80;75.55;100063.88;6191970;28;20597;-70
2021/01/19 12:06:16;;;;;;;4.40;4.03;;;;;;;5.80;76.14;100048.38;6188680;28;20230;-68
2021/01/19 12:09:37;;;;;;;5.80;4.53;;;;;;;5.65;76.87;100044.06;6183473;28;20233;-69
2021/01/19 12:12:58;;;;;;;3.57;3.30;;;;;;;5.63;76.35;100036.31;6191522;28;20496;-69
2021/01/19 12:16:20;;;;;;;3.70;3.40;;;;;;;5.70;76.59;100032.03;6180630;28;20233;-68
2021/01/19 12:19:41;;;;;;;3.53;3.33;;;;;;;5.58;76.99;100030.28;6187052;28;20226;-66
2021/01/19 12:23:02;;;;;;;7.27;4.20;;;;;;;5.90;76.04;100019.91;6192320;28;20234;-68
2021/01/19 12:26:25;;;;;;;5.20;4.23;;;;;;;5.93;76.02;100016.44;6187959;28;20232;-66
2021/01/19 12:29:45;;;;;;;6.17;3.47;;;;;;;5.76;76.24;100013.03;6192238;28;20229;-68
2021/01/19 12:33:06;;;;;;;3.70;3.40;;;;;;;5.85;76.01;100003.53;6189587;28;20238;-65
2021/01/19 12:36:27;;;;;;;3.83;3.40;;;;;;;5.75;76.39;100001.00;6181280;28;20267;-65
2021/01/19 12:39:49;;;;;;;3.80;3.50;;;;;;;5.82;76.88;99989.78;6191345;28;20710;-63
2021/01/19 12:43:11;;;;;;;3.30;3.00;;;;;;;5.89;77.27;99999.22;6191861;28;20221;-72
2021/01/19 12:46:32;;;;;;;2.87;2.67;;;;;;;6.14;75.99;99994.00;6190476;28;20230;-74
2021/01/19 12:49:52;;;;;;;3.70;3.40;;;;;;;5.70;77.06;99978.63;6202529;28;20226;-76
2021/01/19 12:53:13;;;;;;;3.47;3.10;;;;;;;5.49;78.34;99983.84;6191993;28;20233;-68
2021/01/19 12:56:33;;;;;;;3.40;3.10;;;;;;;5.95;77.03;99978.56;6186922;28;20356;-68
2021/01/19 12:59:55;;;;;;;2.93;2.73;;;;;;;5.75;77.54;99975.16;6188270;28;20578;-70
2021/01/19 13:03:15;;;;;;;3.70;2.83;;;;;;;5.95;76.90;99973.38;6216852;28;20246;-67
2021/01/19 13:06:36;;;;;;;3.27;3.07;;;;;;;5.90;76.80;99968.22;6187347;28;20321;-70
2021/01/19 13:09:58;;;;;;;3.67;3.47;;;;;;;6.10;76.53;99968.16;6186239;28;20963;-70
2021/01/19 13:13:19;;;;;;;2.73;2.63;;;;;;;5.61;78.17;99972.63;6195439;28;20587;-70
2021/01/19 13:16:41;;;;;;;3.77;3.47;;;;;;;5.91;77.94;99962.19;6180366;28;20233;-69
2021/01/19 13:20:02;;;;;;;3.40;3.10;;;;;;;5.95;77.55;99960.47;6190547;28;20230;-70
2021/01/19 13:23:23;;;;;;;3.90;3.60;;;;;;;6.08;77.37;99958.69;6189738;28;20233;-69
2021/01/19 13:26:44;;;;;;;3.53;3.33;;;;;;;6.21;76.78;99955.19;6188710;28;20241;-71
2021/01/19 13:30:06;;;;;;;3.77;3.43;;;;;;;5.82;78.32;99966.53;6204320;28;20285;-69
2021/01/19 13:33:30;;;;;;;4.27;3.97;;;;;;;5.69;78.89;99966.56;6191022;28;20225;-69
2021/01/19 13:36:51;;;;;;;3.97;3.67;;;;;;;5.77;78.77;99952.75;6190104;28;20238;-71
2021/01/19 13:40:13;;;;;;;4.70;4.40;;;;;;;5.93;78.79;99951.81;6194882;28;20234;-71
2021/01/19 13:43:33;;;;;;;4.10;3.80;;;;;;;5.67;79.95;99959.69;6194774;28;20229;-70
2021/01/19 13:46:54;;;;;;;5.30;4.90;;;;;;;6.00;79.13;99956.16;6187687;28;20229;-69
2021/01/19 13:50:16;;;;;;;5.43;4.40;;;;;;;6.00;78.98;99957.88;6194219;28;20242;-67
2021/01/19 13:53:40;;;;;;;5.50;4.87;;;;;;;6.24;78.54;99951.72;6191142;28;20548;-69
2021/01/19 13:57:00;;;;;;;5.20;4.80;;;;;;;6.01;79.49;99952.72;6187525;28;20233;-68
2021/01/19 14:00:22;;;;;;;5.43;5.03;;;;;;;6.03;80.00;99966.47;6197483;28;20318;-67
2021/01/19 14:03:43;;;;;;;6.37;5.77;;;;;;;6.08;79.94;99958.69;6195689;28;20238;-68
2021/01/19 14:07:04;;;;;;;5.77;5.37;;;;;;;5.73;81.34;99962.25;6190948;28;20242;-67
2021/01/19 14:10:25;;;;;;;5.87;5.40;;;;;;;5.80;81.77;99952.75;6188213;28;20229;-67
2021/01/19 14:13:45;;;;;;;7.43;6.73;;;;;;;6.28;79.45;99945.66;6190900;28;20237;-67
2021/01/19 14:17:08;;;;;;;7.80;7.10;;;;;;;6.42;78.84;99951.63;6185010;28;20233;-66
2021/01/19 14:20:28;;;;;;;8.80;6.77;;;;;;;6.24;79.80;99949.13;6189519;28;20229;-66
2021/01/19 14:23:51;;;;;;;8.00;7.40;;;;;;;6.16;80.16;99948.31;6187217;28;20530;-65
2021/01/19 14:27:12;;;;;;;8.33;7.60;;;;;;;6.25;79.95;99956.03;6188328;28;20478;-66
2021/01/19 14:30:32;;;;;;;7.77;6.97;;;;;;;6.26;80.23;99950.00;6193521;28;20512;-67
2021/01/19 14:33:53;;;;;;;7.43;6.23;;;;;;;6.48;79.17;99958.50;6187319;28;20712;-68
2021/01/19 14:37:15;;;;;;;7.47;6.77;;;;;;;6.72;78.42;99948.84;6197610;28;20511;-70
2021/01/19 14:40:36;;;;;;;7.97;7.27;;;;;;;6.54;79.19;99953.28;6187178;28;20674;-70
2021/01/19 14:43:57;;;;;;;8.10;7.40;;;;;;;6.33;79.80;99946.50;6187467;28;20544;-69
2021/01/19 14:47:17;;;;;;;8.17;7.57;;;;;;;6.18;80.63;99950.03;6190918;28;20360;-70
2021/01/19 14:50:38;;;;;;;8.73;7.93;;;;;;;6.37;80.23;99949.94;6184775;28;20226;-68
2021/01/19 14:53:58;;;;;;;7.17;6.57;;;;;;;6.21;80.64;99952.59;6187777;28;20242;-68
2021/01/19 14:57:20;;;;;;;8.90;7.30;;;;;;;6.18;80.94;99954.34;6190852;28;20229;-69
2021/01/19 15:00:40;;;;;;;8.17;7.37;;;;;;;6.44;80.89;99960.25;6191891;28;20225;-66
2021/01/19 15:04:01;;;;;;;25.73;8.30;;;;;;;6.73;79.71;99959.19;6195582;28;20229;-68
2021/01/19 15:07:21;;;;;;;10.03;9.13;;;;;;;6.77;79.19;99960.91;6186238;28;20249;-70
2021/01/19 15:10:42;;;;;;;9.40;8.57;;;;;;;7.01;78.50;99959.00;6188282;28;20234;-69
2021/01/19 15:14:03;;;;;;;10.97;10.00;;;;;;;6.77;79.11;99968.66;6192541;28;20713;-69
2021/01/19 15:17:24;;;;;;;9.43;8.63;;;;;;;6.69;80.12;99970.44;6190524;28;20587;-69
2021/01/19 15:20:44;;;;;;;9.43;8.63;;;;;;;6.69;80.35;99975.63;6187658;28;20350;-69
2021/01/19 15:24:06;;;;;;;9.57;8.67;;;;;;;6.75;80.28;99975.56;6186580;28;20258;-70
2021/01/19 15:27:26;;;;;;;11.43;9.93;;;;;;;7.02;79.32;99978.84;6182933;28;20608;-69
2021/01/19 15:30:48;;;;;;;10.07;9.17;;;;;;;6.63;81.01;99978.22;6184832;28;20538;-69
2021/01/19 15:34:08;;;;;;;9.33;8.43;;;;;;;6.71;80.28;99979.06;6186882;28;20671;-69
2021/01/19 15:37:29;;;;;;;11.13;9.17;;;;;;;6.70;80.67;99980.75;6209862;28;20226;-69
2021/01/19 15:40:49;;;;;;;11.03;10.03;;;;;;;6.79;80.76;99979.84;6168130;28;20233;-69
2021/01/19 15:44:10;;;;;;;11.37;9.47;;;;;;;6.78;80.95;99985.03;6197163;28;20230;-70